Buoy 44843

sailwx.info

Track history (hours):
 
Tides and Currents Weather Stations Pressure Air Temp Water Temp Dewpoint Dewpoint Depression Visibility Wind Speed Wind Dir Waves Ship Positions

Drifting buoy 44843

Last reported at 2018-May-20 09:00 UTC. Time now 2018-May-20 10:19 UTC.
Position N 32°26' W 068°26'.

Date/timePositionNaut miles runAvg speedWind from/ knotsBaromVisibWave heightAir tempDewpointWater temp
2018-May-20 09:00N 32°26' W 068°26'0 0.0
2018-May-20 07:45N 32°26' W 068°26'3 0.6
2018-May-20 03:00N 32°24' W 068°23'0 0.0
2018-May-20 02:00N 32°24' W 068°23'2 0.7
2018-May-19 23:45N 32°23' W 068°22'1 0.3
2018-May-19 22:00N 32°23' W 068°21'1 5.2
2018-May-19 21:45N 32°22' W 068°20'0 0.0
2018-May-19 21:00N 32°22' W 068°20'0 0.0
2018-May-19 20:45N 32°22' W 068°20'3 0.6
2018-May-19 15:45N 32°21' W 068°17'0 0.0
2018-May-19 14:45N 32°21' W 068°17'0 0.0
2018-May-19 14:15N 32°21' W 068°17'0 0.0
2018-May-19 14:00N 32°21' W 068°17'0 0.0
2018-May-19 13:45N 32°21' W 068°17'1 1.6
2018-May-19 13:15N 32°20' W 068°17'0 0.0
2018-May-19 13:00N 32°20' W 068°17'0 0.0
2018-May-19 12:30N 32°20' W 068°17'1 2.4
2018-May-19 12:15N 32°20' W 068°17'1 0.5
2018-May-19 11:15N 32°20' W 068°16'0 0.0
2018-May-19 11:00N 32°20' W 068°16'0 0.0
2018-May-19 10:45N 32°20' W 068°16'1 0.6
2018-May-19 09:45N 32°19' W 068°16'1 0.4
2018-May-19 08:00N 32°19' W 068°16'310.8
2018-May-19 07:45N 32°17' W 068°13'1 0.1
2018-May-19 01:45N 32°17' W 068°13'1 0.5
2018-May-19 00:45N 32°17' W 068°13'0 0.0
2018-May-19 00:15N 32°17' W 068°13'1 2.0
2018-May-19 00:00N 32°17' W 068°14'1 4.7 040 / 4 gusting 6 0.115.4 1.111.3
2018-May-18 23:45N 32°17' W 068°13'0 0.0 110 / 12 gusting 14 0.611.5
2018-May-18 21:15N 32°17' W 068°13'1 4.8
2018-May-18 21:00N 32°16' W 068°13'3 0.5
2018-May-18 15:15N 32°13' W 068°10'0 0.0
2018-May-18 15:00N 32°13' W 068°10'0 0.0
2018-May-18 14:30N 32°13' W 068°10'1 2.0
2018-May-18 14:15N 32°13' W 068°10'0 0.0
2018-May-18 14:00N 32°13' W 068°10'1 1.0
2018-May-18 13:30N 32°13' W 068°09'1 2.0
2018-May-18 13:15N 32°13' W 068°10'1 1.6
2018-May-18 12:45N 32°13' W 068°09'1 2.0
2018-May-18 12:30N 32°13' W 068°08'0 0.0
2018-May-18 12:15N 32°13' W 068°08'0 0.0
2018-May-18 11:45N 32°13' W 068°08'0 0.0
2018-May-18 11:15N 32°13' W 068°08'0 0.0
2018-May-18 11:00N 32°13' W 068°08'1 1.0
2018-May-18 10:15N 32°12' W 068°08'2 3.3
2018-May-18 09:45N 32°13' W 068°06'0 0.0
2018-May-18 08:30N 32°13' W 068°06'1 3.1
2018-May-18 08:15N 32°12' W 068°07'2 7.8
2018-May-18 08:00N 32°11' W 068°05'1 0.1
2018-May-18 02:45N 32°11' W 068°04'0 0.0
2018-May-18 02:15N 32°11' W 068°04'1 3.1
2018-May-18 02:00N 32°10' W 068°04'0 0.0
2018-May-18 01:15N 32°10' W 068°04'1 2.0
2018-May-18 01:00N 32°10' W 068°04'1 1.6
2018-May-18 00:30N 32°11' W 068°04'1 3.1
2018-May-18 00:15N 32°10' W 068°04'1 4.1
2018-May-18 00:00N 32°10' W 068°03'0 0.0
2018-May-17 23:00N 32°10' W 068°03'1 2.4
2018-May-17 22:45N 32°10' W 068°03'0 0.0
2018-May-17 22:30N 32°10' W 068°03'1 2.0
2018-May-17 22:15N 32°10' W 068°02'1 0.7
2018-May-17 21:30N 32°10' W 068°03'0 0.0
2018-May-17 21:15N 32°10' W 068°03'1 2.0
2018-May-17 21:00N 32°10' W 068°02'1 1.0
2018-May-17 19:45N 32°08' W 068°02'2 7.5
2018-May-17 19:30N 32°07' W 068°02'1 0.2
2018-May-17 15:30N 32°06' W 068°01'1 1.6
2018-May-17 14:45N 32°05' W 068°00'0 0.0
2018-May-17 14:15N 32°05' W 068°00'0 0.0
2018-May-17 14:00N 32°05' W 068°00'0 0.0
2018-May-17 13:45N 32°05' W 068°00'0 0.0
2018-May-17 13:15N 32°05' W 068°00'2 6.1
2018-May-17 13:00N 32°05' W 067°58'0 0.0
2018-May-17 12:45N 32°05' W 067°58'1 2.4
2018-May-17 12:30N 32°05' W 067°58'0 0.0
2018-May-17 11:30N 32°05' W 067°58'0 0.0
2018-May-17 11:00N 32°05' W 067°58'0 0.0
2018-May-17 10:45N 32°05' W 067°58'1 2.0
2018-May-17 10:30N 32°05' W 067°58'1 2.4
2018-May-17 10:00N 32°04' W 067°56'0 0.0
2018-May-17 09:45N 32°04' W 067°56'1 1.0
2018-May-17 09:00N 32°05' W 067°57'0 0.0
2018-May-17 08:45N 32°05' W 067°57'0 0.0
2018-May-17 08:30N 32°05' W 067°57'2 8.5
2018-May-17 08:15N 32°04' W 067°55'0 0.0
2018-May-17 03:00N 32°04' W 067°55'0 0.0
2018-May-17 02:30N 32°04' W 067°55'0 0.0
2018-May-17 02:15N 32°04' W 067°55'1 0.8
2018-May-17 01:30N 32°04' W 067°55'0 0.0
2018-May-17 01:15N 32°04' W 067°55'1 1.0
2018-May-17 00:45N 32°04' W 067°54'1 1.2
2018-May-17 00:15N 32°03' W 067°54'0 0.0
2018-May-17 00:00N 32°03' W 067°54'0 0.0
2018-May-16 23:45N 32°03' W 067°54'1 2.4
2018-May-16 23:30N 32°02' W 067°54'0 0.0
2018-May-16 23:15N 32°02' W 067°54'0 0.0
2018-May-16 23:00N 32°02' W 067°54'1 1.0
2018-May-16 22:30N 32°02' W 067°53'0 0.0
2018-May-16 21:45N 32°02' W 067°53'2 7.2
2018-May-16 21:30N 32°01' W 067°53'0 0.0
2018-May-16 20:00N 32°01' W 067°53'414.2
2018-May-16 19:45N 31°59' W 067°50'0 0.0
2018-May-16 18:15N 31°59' W 067°50'1 0.5
2018-May-16 15:45N 31°58' W 067°49'0 0.0
2018-May-16 15:15N 31°58' W 067°49'1 4.1
2018-May-16 15:00N 31°58' W 067°47'0 0.0
2018-May-16 14:30N 31°58' W 067°47'0 0.0
2018-May-16 14:15N 31°58' W 067°47'0 0.0
2018-May-16 14:00N 31°58' W 067°47'1 2.0
2018-May-16 13:30N 31°58' W 067°46'0 0.0
2018-May-16 13:15N 31°58' W 067°46'0 0.0
2018-May-16 13:00N 31°58' W 067°46'0 0.0
2018-May-16 12:45N 31°58' W 067°46'0 0.0
2018-May-16 12:30N 31°58' W 067°46'0 0.0
2018-May-16 12:00N 31°58' W 067°46'0 0.0
2018-May-16 11:45N 31°58' W 067°46'1 1.2
2018-May-16 11:15N 31°58' W 067°46'1 2.0
2018-May-16 11:00N 31°58' W 067°46'0 0.0
2018-May-16 10:15N 31°58' W 067°46'1 2.0
2018-May-16 10:00N 31°58' W 067°45'0 0.0
2018-May-16 09:30N 31°58' W 067°45'0 0.0
2018-May-16 09:15N 31°58' W 067°45'3 3.8
2018-May-16 08:30N 31°55' W 067°43'1 0.1
2018-May-16 02:45N 31°55' W 067°43'0 0.0
2018-May-16 01:45N 31°55' W 067°43'0 0.0
2018-May-16 01:15N 31°55' W 067°43'1 2.0
2018-May-16 01:00N 31°55' W 067°42'0 0.0
2018-May-16 00:30N 31°55' W 067°42'0 0.0
2018-May-16 00:15N 31°55' W 067°42'0 0.0
2018-May-16 00:00N 31°55' W 067°42'0 0.0
2018-May-15 23:45N 31°55' W 067°42'1 3.1
2018-May-15 23:30N 31°54' W 067°41'0 0.0
2018-May-15 22:45N 31°54' W 067°41'0 0.0
2018-May-15 22:15N 31°54' W 067°41'0 0.0
2018-May-15 22:00N 31°54' W 067°41'1 4.7
2018-May-15 21:45N 31°53' W 067°40'0 0.0
2018-May-15 20:15N 31°53' W 067°40'1 3.1
2018-May-15 20:00N 31°53' W 067°41'0 0.0
2018-May-15 18:30N 31°53' W 067°41'2 6.3
2018-May-15 18:15N 31°52' W 067°40'0 0.0
2018-May-15 15:30N 31°52' W 067°40'0 0.0
2018-May-15 15:15N 31°52' W 067°40'1 1.0
2018-May-15 14:30N 31°51' W 067°39'0 0.0
2018-May-15 14:00N 31°51' W 067°39'1 2.0
2018-May-15 13:45N 31°51' W 067°38'0 0.0
2018-May-15 13:15N 31°51' W 067°38'0 0.0
2018-May-15 13:00N 31°51' W 067°38'0 0.0
2018-May-15 12:45N 31°51' W 067°38'0 0.0
2018-May-15 12:15N 31°51' W 067°38'1 1.6
2018-May-15 11:45N 31°52' W 067°39'1 4.7
2018-May-15 11:30N 31°51' W 067°38'1 2.0
2018-May-15 11:15N 31°51' W 067°37'0 0.0
2018-May-15 10:30N 31°51' W 067°37'1 4.7
2018-May-15 10:15N 31°52' W 067°38'0 0.0
2018-May-15 10:00N 31°52' W 067°38'0 0.0
2018-May-15 09:45N 31°52' W 067°38'0 0.0
2018-May-15 08:45N 31°52' W 067°38'2 7.5
2018-May-15 08:30N 31°50' W 067°38'2 7.5
2018-May-15 08:15N 31°52' W 067°38'2 1.5
2018-May-15 07:00N 31°50' W 067°38'0 0.0
2018-May-15 03:00N 31°50' W 067°38'0 0.0
2018-May-15 02:15N 31°50' W 067°38'0 0.0
2018-May-15 02:00N 31°50' W 067°38'0 0.0
2018-May-15 01:30N 31°50' W 067°38'0 0.0
2018-May-15 01:15N 31°50' W 067°38'1 1.0
2018-May-15 00:45N 31°50' W 067°37'0 0.0
2018-May-15 00:30N 31°50' W 067°37'0 0.0
2018-May-15 00:15N 31°50' W 067°37'0 0.0
2018-May-15 00:00N 31°50' W 067°37'0 0.0
2018-May-14 23:45N 31°50' W 067°37'0 0.0
2018-May-14 23:00N 31°50' W 067°37'1 3.1
2018-May-14 22:45N 31°49' W 067°38'0 0.0
2018-May-14 22:30N 31°49' W 067°38'0 0.0
2018-May-14 22:15N 31°49' W 067°38'1 1.2
2018-May-14 21:15N 31°49' W 067°37'0 0.0
2018-May-14 21:00N 31°49' W 067°37'1 2.4
2018-May-14 20:45N 31°49' W 067°37'1 1.0
2018-May-14 20:15N 31°49' W 067°37'0 0.0
2018-May-14 20:00N 31°49' W 067°37'0 0.0
2018-May-14 18:45N 31°49' W 067°37'1 4.7
2018-May-14 18:30N 31°50' W 067°38'0 0.0
2018-May-14 15:45N 31°50' W 067°38'0 0.0
2018-May-14 15:00N 31°50' W 067°38'1 2.0
2018-May-14 14:45N 31°50' W 067°39'1 1.0
2018-May-14 14:15N 31°50' W 067°40'0 0.0
2018-May-14 14:00N 31°50' W 067°40'0 0.0
2018-May-14 13:15N 31°50' W 067°40'0 0.0
2018-May-14 13:00N 31°50' W 067°40'0 0.0
2018-May-14 12:45N 31°50' W 067°40'1 0.4
2018-May-14 11:30N 31°50' W 067°40'0 0.0
2018-May-14 11:15N 31°50' W 067°40'0 0.0
2018-May-14 11:00N 31°50' W 067°40'1 1.6
2018-May-14 10:30N 31°49' W 067°40'1 3.1
2018-May-14 10:15N 31°50' W 067°40'0 0.0
2018-May-14 09:00N 31°50' W 067°40'1 4.8
2018-May-14 08:45N 31°49' W 067°40'1 0.5
2018-May-14 07:15N 31°48' W 067°41'1 0.2
2018-May-14 02:30N 31°49' W 067°40'1 1.0
2018-May-14 01:45N 31°48' W 067°41'0 0.0
2018-May-14 01:00N 31°48' W 067°41'1 3.1
2018-May-14 00:45N 31°49' W 067°40'0 0.0
2018-May-14 00:15N 31°49' W 067°40'0 0.0
2018-May-14 00:00N 31°49' W 067°40'0 0.0
2018-May-13 23:15N 31°49' W 067°40'0 0.0
2018-May-13 23:00N 31°49' W 067°40'0 0.0
2018-May-13 22:45N 31°49' W 067°40'1 0.5
2018-May-13 21:45N 31°49' W 067°40'0 0.0
2018-May-13 21:30N 31°49' W 067°40'0 0.0
2018-May-13 21:00N 31°49' W 067°40'1 1.0
2018-May-13 20:30N 31°49' W 067°40'1 2.0
2018-May-13 20:15N 31°49' W 067°40'2 1.2
2018-May-13 18:45N 31°50' W 067°40'1 0.2
2018-May-13 15:15N 31°50' W 067°40'0 0.0
2018-May-13 14:30N 31°50' W 067°40'1 0.8
2018-May-13 13:30N 31°50' W 067°41'1 2.4
2018-May-13 13:15N 31°50' W 067°41'1 3.1
2018-May-13 13:00N 31°50' W 067°40'1 3.1
2018-May-13 12:45N 31°50' W 067°41'0 0.0
2018-May-13 11:45N 31°50' W 067°41'0 0.0
2018-May-13 11:30N 31°50' W 067°41'0 0.0
2018-May-13 11:00N 31°50' W 067°41'0 0.0
2018-May-13 09:45N 31°50' W 067°41'0 0.0
2018-May-13 09:30N 31°50' W 067°41'1 2.0
2018-May-13 09:15N 31°50' W 067°41'1 3.1
2018-May-13 09:00N 31°49' W 067°41'0 0.0
2018-May-13 07:30N 31°49' W 067°41'2 7.5
2018-May-13 07:15N 31°47' W 067°40'1 0.2
2018-May-13 02:45N 31°48' W 067°40'0 0.0
2018-May-13 02:15N 31°48' W 067°40'1 3.1
2018-May-13 02:00N 31°47' W 067°39'0 0.0
2018-May-13 01:15N 31°47' W 067°39'0 0.0
2018-May-13 01:00N 31°47' W 067°39'1 2.0
2018-May-13 00:45N 31°47' W 067°38'0 0.0
2018-May-13 00:30N 31°47' W 067°38'0 0.0
2018-May-13 00:15N 31°47' W 067°38'1 1.2
2018-May-12 23:45N 31°48' W 067°38'1 1.6
2018-May-12 23:15N 31°47' W 067°38'1 3.1
2018-May-12 23:00N 31°48' W 067°37'0 0.0
2018-May-12 22:15N 31°48' W 067°37'0 0.0
2018-May-12 22:00N 31°48' W 067°37'1 1.6
2018-May-12 21:30N 31°49' W 067°37'0 0.0
2018-May-12 20:45N 31°49' W 067°37'0 0.0
2018-May-12 20:30N 31°49' W 067°37'3 2.1
2018-May-12 19:00N 31°52' W 067°38'0 0.0
2018-May-12 18:45N 31°52' W 067°38'1 0.4
2018-May-12 15:30N 31°50' W 067°38'0 0.0
2018-May-12 15:00N 31°50' W 067°38'1 2.0
2018-May-12 14:45N 31°50' W 067°38'0 0.0
2018-May-12 14:00N 31°50' W 067°38'0 0.0
2018-May-12 13:45N 31°50' W 067°38'1 4.1
2018-May-12 13:30N 31°50' W 067°40'0 0.0
2018-May-12 13:15N 31°50' W 067°40'0 0.0
2018-May-12 13:00N 31°50' W 067°40'0 0.0
2018-May-12 12:00N 31°50' W 067°40'1 3.1
2018-May-12 11:45N 31°50' W 067°40'1 2.0
2018-May-12 11:30N 31°50' W 067°40'0 0.0
2018-May-12 10:15N 31°50' W 067°40'1 2.4
2018-May-12 10:00N 31°49' W 067°40'1 2.0
2018-May-12 09:45N 31°49' W 067°40'1 2.6
2018-May-12 09:15N 31°48' W 067°40'0 0.0
2018-May-12 08:15N 31°48' W 067°40'0 0.0
2018-May-12 07:45N 31°48' W 067°40'311.3
2018-May-12 07:30N 31°47' W 067°37'0 0.0
2018-May-12 03:15N 31°47' W 067°37'1 0.8
2018-May-12 02:30N 31°46' W 067°37'0 0.0
2018-May-12 02:15N 31°46' W 067°37'1 1.1
2018-May-12 01:30N 31°47' W 067°36'0 0.0
2018-May-12 01:15N 31°47' W 067°36'1 2.0
2018-May-12 01:00N 31°47' W 067°35'1 4.7
2018-May-12 00:45N 31°47' W 067°34'0 0.0
2018-May-12 00:15N 31°47' W 067°34'0 0.0
2018-May-12 00:00N 31°47' W 067°34'1 2.0
2018-May-11 23:45N 31°47' W 067°35'1 3.1
2018-May-11 23:30N 31°48' W 067°35'1 3.1
2018-May-11 23:15N 31°47' W 067°35'1 1.6
2018-May-11 22:45N 31°48' W 067°35'0 0.0
2018-May-11 22:30N 31°48' W 067°35'1 2.4
2018-May-11 22:00N 31°49' W 067°34'1 2.0
2018-May-11 21:45N 31°49' W 067°35'0 0.0
2018-May-11 21:00N 31°49' W 067°35'0 0.0
2018-May-11 20:45N 31°49' W 067°35'1 0.9
2018-May-11 19:15N 31°50' W 067°35'310.5
2018-May-11 19:00N 31°49' W 067°38'1 0.2
2018-May-11 16:00N 31°49' W 067°38'0 0.0
2018-May-11 15:45N 31°49' W 067°38'1 1.6
2018-May-11 15:15N 31°49' W 067°38'0 0.0
2018-May-11 15:00N 31°49' W 067°38'0 0.0
2018-May-11 14:15N 31°49' W 067°38'0 0.0
2018-May-11 14:00N 31°49' W 067°38'1 1.2
2018-May-11 13:30N 31°48' W 067°38'0 0.0
2018-May-11 12:30N 31°48' W 067°38'0 0.0
2018-May-11 12:15N 31°48' W 067°38'1 2.4
2018-May-11 12:00N 31°47' W 067°38'0 0.0
2018-May-11 10:45N 31°47' W 067°38'1 3.1
2018-May-11 10:30N 31°47' W 067°38'0 0.0
2018-May-11 10:15N 31°47' W 067°38'1 0.7
2018-May-11 09:30N 31°47' W 067°37'0 0.0
2018-May-11 09:15N 31°47' W 067°37'1 1.0
2018-May-11 08:45N 31°47' W 067°38'3 2.6
2018-May-11 07:45N 31°44' W 067°37'0 0.0
2018-May-11 02:00N 31°44' W 067°37'1 3.2
2018-May-11 01:45N 31°45' W 067°36'0 0.0
2018-May-11 01:30N 31°45' W 067°36'0 0.0
2018-May-11 01:15N 31°45' W 067°36'1 2.0
2018-May-11 01:00N 31°45' W 067°35'1 0.7
2018-May-11 00:15N 31°45' W 067°36'0 0.0
2018-May-11 00:00N 31°45' W 067°36'1 2.4
2018-May-10 23:45N 31°44' W 067°36'0 0.0
2018-May-10 23:30N 31°44' W 067°36'1 2.0
2018-May-10 23:15N 31°44' W 067°35'0 0.0
2018-May-10 23:00N 31°44' W 067°35'1 1.0
2018-May-10 22:30N 31°44' W 067°36'0 0.0
2018-May-10 22:15N 31°44' W 067°36'1 4.1
2018-May-10 22:00N 31°44' W 067°35'1 1.0
2018-May-10 21:30N 31°44' W 067°35'0 0.0
2018-May-10 21:00N 31°44' W 067°35'1 0.3
2018-May-10 19:30N 31°44' W 067°36'1 3.2
2018-May-10 19:15N 31°44' W 067°37'0 0.0
2018-May-10 15:30N 31°44' W 067°37'0 0.0
2018-May-10 14:45N 31°44' W 067°37'1 2.4
2018-May-10 14:30N 31°43' W 067°37'0 0.0
2018-May-10 14:00N 31°43' W 067°37'0 0.0
2018-May-10 13:45N 31°43' W 067°37'0 0.0
2018-May-10 13:00N 31°43' W 067°37'0 0.0
2018-May-10 12:45N 31°43' W 067°37'1 2.0
2018-May-10 12:30N 31°43' W 067°37'1 2.4
2018-May-10 12:15N 31°43' W 067°37'0 0.0
2018-May-10 11:15N 31°43' W 067°37'1 2.4
2018-May-10 11:00N 31°42' W 067°37'0 0.0
2018-May-10 10:45N 31°42' W 067°37'0 0.0
2018-May-10 09:45N 31°42' W 067°37'1 3.2
2018-May-10 09:30N 31°41' W 067°38'1 2.0
2018-May-10 09:15N 31°41' W 067°37'  
Track history (hours):
 
Tides and Currents Weather Stations Pressure Air Temp Water Temp Dewpoint Dewpoint Depression Visibility Wind Speed Wind Dir Waves Ship Positions

Drifting buoy 44843

Last reported at 2018-May-20 09:00 UTC. Time now 2018-May-20 10:19 UTC.
Position N 32°26' W 068°26'.

Date/timePositionNaut miles runAvg speedWind from/ knotsBaromVisibWave heightAir tempDewpointWater temp
2018-May-20 09:00N 32°26' W 068°26'0 0.0
2018-May-20 07:45N 32°26' W 068°26'3 0.6
2018-May-20 03:00N 32°24' W 068°23'0 0.0
2018-May-20 02:00N 32°24' W 068°23'2 0.7
2018-May-19 23:45N 32°23' W 068°22'1 0.3
2018-May-19 22:00N 32°23' W 068°21'1 5.2
2018-May-19 21:45N 32°22' W 068°20'0 0.0
2018-May-19 21:00N 32°22' W 068°20'0 0.0
2018-May-19 20:45N 32°22' W 068°20'3 0.6
2018-May-19 15:45N 32°21' W 068°17'0 0.0
2018-May-19 14:45N 32°21' W 068°17'0 0.0
2018-May-19 14:15N 32°21' W 068°17'0 0.0
2018-May-19 14:00N 32°21' W 068°17'0 0.0
2018-May-19 13:45N 32°21' W 068°17'1 1.6
2018-May-19 13:15N 32°20' W 068°17'0 0.0
2018-May-19 13:00N 32°20' W 068°17'0 0.0
2018-May-19 12:30N 32°20' W 068°17'1 2.4
2018-May-19 12:15N 32°20' W 068°17'1 0.5
2018-May-19 11:15N 32°20' W 068°16'0 0.0
2018-May-19 11:00N 32°20' W 068°16'0 0.0
2018-May-19 10:45N 32°20' W 068°16'1 0.6
2018-May-19 09:45N 32°19' W 068°16'1 0.4
2018-May-19 08:00N 32°19' W 068°16'310.8
2018-May-19 07:45N 32°17' W 068°13'1 0.1
2018-May-19 01:45N 32°17' W 068°13'1 0.5
2018-May-19 00:45N 32°17' W 068°13'0 0.0
2018-May-19 00:15N 32°17' W 068°13'1 2.0
2018-May-19 00:00N 32°17' W 068°14'1 4.7 040 / 4 gusting 6 0.115.4 1.111.3
2018-May-18 23:45N 32°17' W 068°13'0 0.0 110 / 12 gusting 14 0.611.5
2018-May-18 21:15N 32°17' W 068°13'1 4.8
2018-May-18 21:00N 32°16' W 068°13'3 0.5
2018-May-18 15:15N 32°13' W 068°10'0 0.0
2018-May-18 15:00N 32°13' W 068°10'0 0.0
2018-May-18 14:30N 32°13' W 068°10'1 2.0
2018-May-18 14:15N 32°13' W 068°10'0 0.0
2018-May-18 14:00N 32°13' W 068°10'1 1.0
2018-May-18 13:30N 32°13' W 068°09'1 2.0
2018-May-18 13:15N 32°13' W 068°10'1 1.6
2018-May-18 12:45N 32°13' W 068°09'1 2.0
2018-May-18 12:30N 32°13' W 068°08'0 0.0
2018-May-18 12:15N 32°13' W 068°08'0 0.0
2018-May-18 11:45N 32°13' W 068°08'0 0.0
2018-May-18 11:15N 32°13' W 068°08'0 0.0
2018-May-18 11:00N 32°13' W 068°08'1 1.0
2018-May-18 10:15N 32°12' W 068°08'2 3.3
2018-May-18 09:45N 32°13' W 068°06'0 0.0
2018-May-18 08:30N 32°13' W 068°06'1 3.1
2018-May-18 08:15N 32°12' W 068°07'2 7.8
2018-May-18 08:00N 32°11' W 068°05'1 0.1
2018-May-18 02:45N 32°11' W 068°04'0 0.0
2018-May-18 02:15N 32°11' W 068°04'1 3.1
2018-May-18 02:00N 32°10' W 068°04'0 0.0
2018-May-18 01:15N 32°10' W 068°04'1 2.0
2018-May-18 01:00N 32°10' W 068°04'1 1.6
2018-May-18 00:30N 32°11' W 068°04'1 3.1
2018-May-18 00:15N 32°10' W 068°04'1 4.1
2018-May-18 00:00N 32°10' W 068°03'0 0.0
2018-May-17 23:00N 32°10' W 068°03'1 2.4
2018-May-17 22:45N 32°10' W 068°03'0 0.0
2018-May-17 22:30N 32°10' W 068°03'1 2.0
2018-May-17 22:15N 32°10' W 068°02'1 0.7
2018-May-17 21:30N 32°10' W 068°03'0 0.0
2018-May-17 21:15N 32°10' W 068°03'1 2.0
2018-May-17 21:00N 32°10' W 068°02'1 1.0
2018-May-17 19:45N 32°08' W 068°02'2 7.5
2018-May-17 19:30N 32°07' W 068°02'1 0.2
2018-May-17 15:30N 32°06' W 068°01'1 1.6
2018-May-17 14:45N 32°05' W 068°00'0 0.0
2018-May-17 14:15N 32°05' W 068°00'0 0.0
2018-May-17 14:00N 32°05' W 068°00'0 0.0
2018-May-17 13:45N 32°05' W 068°00'0 0.0
2018-May-17 13:15N 32°05' W 068°00'2 6.1
2018-May-17 13:00N 32°05' W 067°58'0 0.0
2018-May-17 12:45N 32°05' W 067°58'1 2.4
2018-May-17 12:30N 32°05' W 067°58'0 0.0
2018-May-17 11:30N 32°05' W 067°58'0 0.0
2018-May-17 11:00N 32°05' W 067°58'0 0.0
2018-May-17 10:45N 32°05' W 067°58'1 2.0
2018-May-17 10:30N 32°05' W 067°58'1 2.4
2018-May-17 10:00N 32°04' W 067°56'0 0.0
2018-May-17 09:45N 32°04' W 067°56'1 1.0
2018-May-17 09:00N 32°05' W 067°57'0 0.0
2018-May-17 08:45N 32°05' W 067°57'0 0.0
2018-May-17 08:30N 32°05' W 067°57'2 8.5
2018-May-17 08:15N 32°04' W 067°55'0 0.0
2018-May-17 03:00N 32°04' W 067°55'0 0.0
2018-May-17 02:30N 32°04' W 067°55'0 0.0
2018-May-17 02:15N 32°04' W 067°55'1 0.8
2018-May-17 01:30N 32°04' W 067°55'0 0.0
2018-May-17 01:15N 32°04' W 067°55'1 1.0
2018-May-17 00:45N 32°04' W 067°54'1 1.2
2018-May-17 00:15N 32°03' W 067°54'0 0.0
2018-May-17 00:00N 32°03' W 067°54'0 0.0
2018-May-16 23:45N 32°03' W 067°54'1 2.4
2018-May-16 23:30N 32°02' W 067°54'0 0.0
2018-May-16 23:15N 32°02' W 067°54'0 0.0
2018-May-16 23:00N 32°02' W 067°54'1 1.0
2018-May-16 22:30N 32°02' W 067°53'0 0.0
2018-May-16 21:45N 32°02' W 067°53'2 7.2
2018-May-16 21:30N 32°01' W 067°53'0 0.0
2018-May-16 20:00N 32°01' W 067°53'414.2
2018-May-16 19:45N 31°59' W 067°50'0 0.0
2018-May-16 18:15N 31°59' W 067°50'1 0.5
2018-May-16 15:45N 31°58' W 067°49'0 0.0
2018-May-16 15:15N 31°58' W 067°49'1 4.1
2018-May-16 15:00N 31°58' W 067°47'0 0.0
2018-May-16 14:30N 31°58' W 067°47'0 0.0
2018-May-16 14:15N 31°58' W 067°47'0 0.0
2018-May-16 14:00N 31°58' W 067°47'1 2.0
2018-May-16 13:30N 31°58' W 067°46'0 0.0
2018-May-16 13:15N 31°58' W 067°46'0 0.0
2018-May-16 13:00N 31°58' W 067°46'0 0.0
2018-May-16 12:45N 31°58' W 067°46'0 0.0
2018-May-16 12:30N 31°58' W 067°46'0 0.0
2018-May-16 12:00N 31°58' W 067°46'0 0.0
2018-May-16 11:45N 31°58' W 067°46'1 1.2
2018-May-16 11:15N 31°58' W 067°46'1 2.0
2018-May-16 11:00N 31°58' W 067°46'0 0.0
2018-May-16 10:15N 31°58' W 067°46'1 2.0
2018-May-16 10:00N 31°58' W 067°45'0 0.0
2018-May-16 09:30N 31°58' W 067°45'0 0.0
2018-May-16 09:15N 31°58' W 067°45'3 3.8
2018-May-16 08:30N 31°55' W 067°43'1 0.1
2018-May-16 02:45N 31°55' W 067°43'0 0.0
2018-May-16 01:45N 31°55' W 067°43'0 0.0
2018-May-16 01:15N 31°55' W 067°43'1 2.0
2018-May-16 01:00N 31°55' W 067°42'0 0.0
2018-May-16 00:30N 31°55' W 067°42'0 0.0
2018-May-16 00:15N 31°55' W 067°42'0 0.0
2018-May-16 00:00N 31°55' W 067°42'0 0.0
2018-May-15 23:45N 31°55' W 067°42'1 3.1
2018-May-15 23:30N 31°54' W 067°41'0 0.0
2018-May-15 22:45N 31°54' W 067°41'0 0.0
2018-May-15 22:15N 31°54' W 067°41'0 0.0
2018-May-15 22:00N 31°54' W 067°41'1 4.7
2018-May-15 21:45N 31°53' W 067°40'0 0.0
2018-May-15 20:15N 31°53' W 067°40'1 3.1
2018-May-15 20:00N 31°53' W 067°41'0 0.0
2018-May-15 18:30N 31°53' W 067°41'2 6.3
2018-May-15 18:15N 31°52' W 067°40'0 0.0
2018-May-15 15:30N 31°52' W 067°40'0 0.0
2018-May-15 15:15N 31°52' W 067°40'1 1.0
2018-May-15 14:30N 31°51' W 067°39'0 0.0
2018-May-15 14:00N 31°51' W 067°39'1 2.0
2018-May-15 13:45N 31°51' W 067°38'0 0.0
2018-May-15 13:15N 31°51' W 067°38'0 0.0
2018-May-15 13:00N 31°51' W 067°38'0 0.0
2018-May-15 12:45N 31°51' W 067°38'0 0.0
2018-May-15 12:15N 31°51' W 067°38'1 1.6
2018-May-15 11:45N 31°52' W 067°39'1 4.7
2018-May-15 11:30N 31°51' W 067°38'1 2.0
2018-May-15 11:15N 31°51' W 067°37'0 0.0
2018-May-15 10:30N 31°51' W 067°37'1 4.7
2018-May-15 10:15N 31°52' W 067°38'0 0.0
2018-May-15 10:00N 31°52' W 067°38'0 0.0
2018-May-15 09:45N 31°52' W 067°38'0 0.0
2018-May-15 08:45N 31°52' W 067°38'2 7.5
2018-May-15 08:30N 31°50' W 067°38'2 7.5
2018-May-15 08:15N 31°52' W 067°38'2 1.5
2018-May-15 07:00N 31°50' W 067°38'0 0.0
2018-May-15 03:00N 31°50' W 067°38'0 0.0
2018-May-15 02:15N 31°50' W 067°38'0 0.0
2018-May-15 02:00N 31°50' W 067°38'0 0.0
2018-May-15 01:30N 31°50' W 067°38'0 0.0
2018-May-15 01:15N 31°50' W 067°38'1 1.0
2018-May-15 00:45N 31°50' W 067°37'0 0.0
2018-May-15 00:30N 31°50' W 067°37'0 0.0
2018-May-15 00:15N 31°50' W 067°37'0 0.0
2018-May-15 00:00N 31°50' W 067°37'0 0.0
2018-May-14 23:45N 31°50' W 067°37'0 0.0
2018-May-14 23:00N 31°50' W 067°37'1 3.1
2018-May-14 22:45N 31°49' W 067°38'0 0.0
2018-May-14 22:30N 31°49' W 067°38'0 0.0
2018-May-14 22:15N 31°49' W 067°38'1 1.2
2018-May-14 21:15N 31°49' W 067°37'0 0.0
2018-May-14 21:00N 31°49' W 067°37'1 2.4
2018-May-14 20:45N 31°49' W 067°37'1 1.0
2018-May-14 20:15N 31°49' W 067°37'0 0.0
2018-May-14 20:00N 31°49' W 067°37'0 0.0
2018-May-14 18:45N 31°49' W 067°37'1 4.7
2018-May-14 18:30N 31°50' W 067°38'0 0.0
2018-May-14 15:45N 31°50' W 067°38'0 0.0
2018-May-14 15:00N 31°50' W 067°38'1 2.0
2018-May-14 14:45N 31°50' W 067°39'1 1.0
2018-May-14 14:15N 31°50' W 067°40'0 0.0
2018-May-14 14:00N 31°50' W 067°40'0 0.0
2018-May-14 13:15N 31°50' W 067°40'0 0.0
2018-May-14 13:00N 31°50' W 067°40'0 0.0
2018-May-14 12:45N 31°50' W 067°40'1 0.4
2018-May-14 11:30N 31°50' W 067°40'0 0.0
2018-May-14 11:15N 31°50' W 067°40'0 0.0
2018-May-14 11:00N 31°50' W 067°40'1 1.6
2018-May-14 10:30N 31°49' W 067°40'1 3.1
2018-May-14 10:15N 31°50' W 067°40'0 0.0
2018-May-14 09:00N 31°50' W 067°40'1 4.8
2018-May-14 08:45N 31°49' W 067°40'1 0.5
2018-May-14 07:15N 31°48' W 067°41'1 0.2
2018-May-14 02:30N 31°49' W 067°40'1 1.0
2018-May-14 01:45N 31°48' W 067°41'0 0.0
2018-May-14 01:00N 31°48' W 067°41'1 3.1
2018-May-14 00:45N 31°49' W 067°40'0 0.0
2018-May-14 00:15N 31°49' W 067°40'0 0.0
2018-May-14 00:00N 31°49' W 067°40'0 0.0
2018-May-13 23:15N 31°49' W 067°40'0 0.0
2018-May-13 23:00N 31°49' W 067°40'0 0.0
2018-May-13 22:45N 31°49' W 067°40'1 0.5
2018-May-13 21:45N 31°49' W 067°40'0 0.0
2018-May-13 21:30N 31°49' W 067°40'0 0.0
2018-May-13 21:00N 31°49' W 067°40'1 1.0
2018-May-13 20:30N 31°49' W 067°40'1 2.0
2018-May-13 20:15N 31°49' W 067°40'2 1.2
2018-May-13 18:45N 31°50' W 067°40'1 0.2
2018-May-13 15:15N 31°50' W 067°40'0 0.0
2018-May-13 14:30N 31°50' W 067°40'1 0.8
2018-May-13 13:30N 31°50' W 067°41'1 2.4
2018-May-13 13:15N 31°50' W 067°41'1 3.1
2018-May-13 13:00N 31°50' W 067°40'1 3.1
2018-May-13 12:45N 31°50' W 067°41'0 0.0
2018-May-13 11:45N 31°50' W 067°41'0 0.0
2018-May-13 11:30N 31°50' W 067°41'0 0.0
2018-May-13 11:00N 31°50' W 067°41'0 0.0
2018-May-13 09:45N 31°50' W 067°41'0 0.0
2018-May-13 09:30N 31°50' W 067°41'1 2.0
2018-May-13 09:15N 31°50' W 067°41'1 3.1
2018-May-13 09:00N 31°49' W 067°41'0 0.0
2018-May-13 07:30N 31°49' W 067°41'2 7.5
2018-May-13 07:15N 31°47' W 067°40'1 0.2
2018-May-13 02:45N 31°48' W 067°40'0 0.0
2018-May-13 02:15N 31°48' W 067°40'1 3.1
2018-May-13 02:00N 31°47' W 067°39'0 0.0
2018-May-13 01:15N 31°47' W 067°39'0 0.0
2018-May-13 01:00N 31°47' W 067°39'1 2.0
2018-May-13 00:45N 31°47' W 067°38'0 0.0
2018-May-13 00:30N 31°47' W 067°38'0 0.0
2018-May-13 00:15N 31°47' W 067°38'1 1.2
2018-May-12 23:45N 31°48' W 067°38'1 1.6
2018-May-12 23:15N 31°47' W 067°38'1 3.1
2018-May-12 23:00N 31°48' W 067°37'0 0.0
2018-May-12 22:15N 31°48' W 067°37'0 0.0
2018-May-12 22:00N 31°48' W 067°37'1 1.6
2018-May-12 21:30N 31°49' W 067°37'0 0.0
2018-May-12 20:45N 31°49' W 067°37'0 0.0
2018-May-12 20:30N 31°49' W 067°37'3 2.1
2018-May-12 19:00N 31°52' W 067°38'0 0.0
2018-May-12 18:45N 31°52' W 067°38'1 0.4
2018-May-12 15:30N 31°50' W 067°38'0 0.0
2018-May-12 15:00N 31°50' W 067°38'1 2.0
2018-May-12 14:45N 31°50' W 067°38'0 0.0
2018-May-12 14:00N 31°50' W 067°38'0 0.0
2018-May-12 13:45N 31°50' W 067°38'1 4.1
2018-May-12 13:30N 31°50' W 067°40'0 0.0
2018-May-12 13:15N 31°50' W 067°40'0 0.0
2018-May-12 13:00N 31°50' W 067°40'0 0.0
2018-May-12 12:00N 31°50' W 067°40'1 3.1
2018-May-12 11:45N 31°50' W 067°40'1 2.0
2018-May-12 11:30N 31°50' W 067°40'0 0.0
2018-May-12 10:15N 31°50' W 067°40'1 2.4
2018-May-12 10:00N 31°49' W 067°40'1 2.0
2018-May-12 09:45N 31°49' W 067°40'1 2.6
2018-May-12 09:15N 31°48' W 067°40'0 0.0
2018-May-12 08:15N 31°48' W 067°40'0 0.0
2018-May-12 07:45N 31°48' W 067°40'311.3
2018-May-12 07:30N 31°47' W 067°37'0 0.0
2018-May-12 03:15N 31°47' W 067°37'1 0.8
2018-May-12 02:30N 31°46' W 067°37'0 0.0
2018-May-12 02:15N 31°46' W 067°37'1 1.1
2018-May-12 01:30N 31°47' W 067°36'0 0.0
2018-May-12 01:15N 31°47' W 067°36'1 2.0
2018-May-12 01:00N 31°47' W 067°35'1 4.7
2018-May-12 00:45N 31°47' W 067°34'0 0.0
2018-May-12 00:15N 31°47' W 067°34'0 0.0
2018-May-12 00:00N 31°47' W 067°34'1 2.0
2018-May-11 23:45N 31°47' W 067°35'1 3.1
2018-May-11 23:30N 31°48' W 067°35'1 3.1
2018-May-11 23:15N 31°47' W 067°35'1 1.6
2018-May-11 22:45N 31°48' W 067°35'0 0.0
2018-May-11 22:30N 31°48' W 067°35'1 2.4
2018-May-11 22:00N 31°49' W 067°34'1 2.0
2018-May-11 21:45N 31°49' W 067°35'0 0.0
2018-May-11 21:00N 31°49' W 067°35'0 0.0
2018-May-11 20:45N 31°49' W 067°35'1 0.9
2018-May-11 19:15N 31°50' W 067°35'310.5
2018-May-11 19:00N 31°49' W 067°38'1 0.2
2018-May-11 16:00N 31°49' W 067°38'0 0.0
2018-May-11 15:45N 31°49' W 067°38'1 1.6
2018-May-11 15:15N 31°49' W 067°38'0 0.0
2018-May-11 15:00N 31°49' W 067°38'0 0.0
2018-May-11 14:15N 31°49' W 067°38'0 0.0
2018-May-11 14:00N 31°49' W 067°38'1 1.2
2018-May-11 13:30N 31°48' W 067°38'0 0.0
2018-May-11 12:30N 31°48' W 067°38'0 0.0
2018-May-11 12:15N 31°48' W 067°38'1 2.4
2018-May-11 12:00N 31°47' W 067°38'0 0.0
2018-May-11 10:45N 31°47' W 067°38'1 3.1
2018-May-11 10:30N 31°47' W 067°38'0 0.0
2018-May-11 10:15N 31°47' W 067°38'1 0.7
2018-May-11 09:30N 31°47' W 067°37'0 0.0
2018-May-11 09:15N 31°47' W 067°37'1 1.0
2018-May-11 08:45N 31°47' W 067°38'3 2.6
2018-May-11 07:45N 31°44' W 067°37'0 0.0
2018-May-11 02:00N 31°44' W 067°37'1 3.2
2018-May-11 01:45N 31°45' W 067°36'0 0.0
2018-May-11 01:30N 31°45' W 067°36'0 0.0
2018-May-11 01:15N 31°45' W 067°36'1 2.0
2018-May-11 01:00N 31°45' W 067°35'1 0.7
2018-May-11 00:15N 31°45' W 067°36'0 0.0
2018-May-11 00:00N 31°45' W 067°36'1 2.4
2018-May-10 23:45N 31°44' W 067°36'0 0.0
2018-May-10 23:30N 31°44' W 067°36'1 2.0
2018-May-10 23:15N 31°44' W 067°35'0 0.0
2018-May-10 23:00N 31°44' W 067°35'1 1.0
2018-May-10 22:30N 31°44' W 067°36'0 0.0
2018-May-10 22:15N 31°44' W 067°36'1 4.1
2018-May-10 22:00N 31°44' W 067°35'1 1.0
2018-May-10 21:30N 31°44' W 067°35'0 0.0
2018-May-10 21:00N 31°44' W 067°35'1 0.3
2018-May-10 19:30N 31°44' W 067°36'1 3.2
2018-May-10 19:15N 31°44' W 067°37'0 0.0
2018-May-10 15:30N 31°44' W 067°37'0 0.0
2018-May-10 14:45N 31°44' W 067°37'1 2.4
2018-May-10 14:30N 31°43' W 067°37'0 0.0
2018-May-10 14:00N 31°43' W 067°37'0 0.0
2018-May-10 13:45N 31°43' W 067°37'0 0.0
2018-May-10 13:00N 31°43' W 067°37'0 0.0
2018-May-10 12:45N 31°43' W 067°37'1 2.0
2018-May-10 12:30N 31°43' W 067°37'1 2.4
2018-May-10 12:15N 31°43' W 067°37'0 0.0
2018-May-10 11:15N 31°43' W 067°37'1 2.4
2018-May-10 11:00N 31°42' W 067°37'0 0.0
2018-May-10 10:45N 31°42' W 067°37'0 0.0
2018-May-10 09:45N 31°42' W 067°37'1 3.2
2018-May-10 09:30N 31°41' W 067°38'1 2.0
2018-May-10 09:15N 31°41' W 067°37'  

Dump ship's entire track history